createdAt,value
2023-01-17T00:01:46.634Z,35.47
2023-01-17T00:04:32.096Z,63.37
2023-01-17T00:07:17.983Z,37.83
2023-01-17T00:09:53.646Z,34.60
2023-01-17T00:12:21.985Z,31.13
2023-01-17T00:14:49.219Z,37.47
2023-01-17T00:17:16.478Z,37.10
2023-01-17T00:20:01.945Z,50.87
2023-01-17T00:22:48.781Z,48.73
2023-01-17T00:25:36.430Z,37.77
2023-01-17T00:28:04.960Z,30.27
2023-01-17T00:30:32.104Z,35.77
2023-01-17T00:32:59.555Z,45.43
2023-01-17T00:35:28.311Z,54.73
2023-01-17T00:38:25.189Z,43.43
2023-01-17T00:40:52.771Z,32.47
2023-01-17T00:43:41.167Z,44.47
2023-01-17T00:46:26.896Z,35.83
2023-01-17T00:49:12.800Z,43.10
2023-01-17T00:51:58.383Z,30.50
2023-01-17T00:54:44.193Z,31.10
2023-01-17T00:57:30.099Z,32.00
2023-01-17T01:00:15.739Z,26.67
2023-01-17T01:03:01.498Z,32.17
2023-01-17T01:05:47.298Z,36.93
2023-01-17T01:08:38.580Z,35.27
2023-01-17T01:11:35.529Z,29.03
2023-01-17T01:14:21.251Z,29.87
2023-01-17T01:17:06.990Z,28.00
2023-01-17T01:19:52.731Z,30.40
2023-01-17T01:22:38.350Z,29.07
2023-01-17T01:25:24.097Z,28.97
2023-01-17T01:28:09.773Z,90.33
2023-01-17T01:30:55.231Z,36.03
2023-01-17T01:33:22.481Z,41.63
2023-01-17T01:35:51.876Z,31.80
2023-01-17T01:38:20.688Z,47.30
2023-01-17T01:40:50.102Z,38.07
2023-01-17T01:43:20.416Z,53.47
2023-01-17T01:45:53.446Z,39.63
2023-01-17T01:48:25.464Z,39.10
2023-01-17T01:50:52.606Z,39.37
2023-01-17T01:53:21.210Z,40.97
2023-01-17T01:55:49.573Z,102.90
2023-01-17T01:58:21.121Z,38.30
2023-01-17T02:00:48.202Z,65.83
2023-01-17T02:03:19.601Z,67.13
2023-01-17T02:05:46.870Z,51.30
2023-01-17T02:08:19.186Z,42.73
2023-01-17T02:10:46.319Z,86.60
2023-01-17T02:13:15.799Z,49.80
2023-01-17T02:16:01.413Z,53.40
2023-01-17T02:18:38.672Z,43.07
2023-01-17T02:21:26.101Z,43.30
2023-01-17T02:24:27.506Z,44.73
2023-01-17T02:26:59.267Z,57.97
2023-01-17T02:29:57.489Z,237.30
2023-01-17T02:32:24.577Z,57.23
2023-01-17T02:34:59.599Z,60.00
2023-01-17T02:37:33.897Z,72.20
2023-01-17T02:40:10.666Z,82.20
2023-01-17T02:42:42.293Z,54.03
2023-01-17T02:45:15.578Z,50.30
2023-01-17T02:47:42.543Z,42.30
2023-01-17T02:50:13.724Z,44.97
2023-01-17T02:53:05.352Z,56.77
2023-01-17T02:55:41.292Z,72.90
2023-01-17T02:58:57.019Z,77.03
2023-01-17T03:01:39.273Z,48.97
2023-01-17T03:04:13.700Z,45.07
2023-01-17T03:06:48.762Z,51.53
2023-01-17T03:09:16.500Z,49.40
2023-01-17T03:11:44.116Z,48.60
2023-01-17T03:14:11.029Z,40.70
2023-01-17T03:16:38.816Z,51.97
2023-01-17T03:19:05.882Z,45.10
2023-01-17T03:21:33.162Z,48.17
2023-01-17T03:24:00.271Z,53.47
2023-01-17T03:26:27.479Z,139.03
2023-01-17T03:28:54.464Z,81.53
2023-01-17T03:31:21.718Z,57.07
2023-01-17T03:33:48.656Z,39.73
2023-01-17T03:36:15.983Z,64.57
2023-01-17T03:38:42.900Z,50.27
2023-01-17T03:41:10.173Z,52.17
2023-01-17T03:43:37.471Z,43.20
2023-01-17T03:46:06.870Z,40.70
2023-01-17T03:48:34.295Z,45.47
2023-01-17T03:51:01.821Z,67.30
2023-01-17T03:53:28.828Z,55.73
2023-01-17T03:55:56.051Z,88.33
2023-01-17T03:58:22.992Z,91.47
2023-01-17T04:00:50.327Z,62.63
2023-01-17T04:03:17.331Z,54.80
2023-01-17T04:05:44.495Z,49.97
2023-01-17T04:08:11.679Z,55.10
2023-01-17T04:10:38.959Z,48.30
2023-01-17T04:13:06.214Z,55.30
2023-01-17T04:15:33.706Z,48.80
2023-01-17T04:18:00.775Z,45.17
2023-01-17T04:20:34.199Z,59.57
2023-01-17T04:23:01.291Z,59.70
2023-01-17T04:25:30.891Z,45.53
2023-01-17T04:27:59.152Z,50.23
2023-01-17T04:30:27.426Z,38.10
2023-01-17T04:32:54.987Z,52.33
2023-01-17T04:35:22.718Z,48.57
2023-01-17T04:37:49.843Z,45.40
2023-01-17T04:40:17.547Z,54.63
2023-01-17T04:42:45.147Z,42.07
2023-01-17T04:45:12.556Z,45.67
2023-01-17T04:47:39.623Z,42.63
2023-01-17T04:50:08.402Z,66.33
2023-01-17T04:52:35.337Z,41.43
2023-01-17T04:55:02.670Z,51.53
2023-01-17T04:57:29.735Z,98.83
2023-01-17T04:59:56.917Z,42.23
2023-01-17T05:02:23.947Z,44.57
2023-01-17T05:04:51.259Z,54.10
2023-01-17T05:07:18.290Z,48.57
2023-01-17T05:09:45.524Z,44.47
2023-01-17T05:12:12.463Z,35.70
2023-01-17T05:14:39.859Z,38.60
2023-01-17T05:17:07.726Z,35.07
2023-01-17T05:19:34.977Z,45.47
2023-01-17T05:22:04.153Z,35.23
2023-01-17T05:24:32.359Z,36.97
2023-01-17T05:27:03.231Z,60.53
2023-01-17T05:29:30.869Z,31.27
2023-01-17T05:31:57.926Z,37.53
2023-01-17T05:34:25.250Z,43.83
2023-01-17T05:36:52.237Z,41.20
2023-01-17T05:39:19.518Z,36.57
2023-01-17T05:41:46.463Z,30.13
2023-01-17T05:44:15.264Z,33.87
2023-01-17T05:46:42.604Z,33.53
2023-01-17T05:49:10.229Z,68.53
2023-01-17T05:51:39.548Z,35.47
2023-01-17T05:54:07.052Z,109.10
2023-01-17T05:56:34.186Z,37.47
2023-01-17T05:59:01.527Z,40.47
2023-01-17T06:01:28.557Z,31.53
2023-01-17T06:03:55.905Z,51.93
2023-01-17T06:06:23.018Z,41.40
2023-01-17T06:08:50.310Z,34.43
2023-01-17T06:11:18.640Z,34.70
2023-01-17T06:13:46.046Z,36.33
2023-01-17T06:16:13.200Z,37.20
2023-01-17T06:18:40.456Z,42.50
2023-01-17T06:21:07.532Z,46.10
2023-01-17T06:23:34.734Z,57.13
2023-01-17T06:26:03.768Z,142.93
2023-01-17T06:28:31.037Z,40.83
2023-01-17T06:30:59.876Z,35.77
2023-01-17T06:33:27.279Z,41.13
2023-01-17T06:35:54.293Z,43.30
2023-01-17T06:38:21.741Z,37.40
2023-01-17T06:40:49.026Z,29.97
2023-01-17T06:43:16.808Z,37.70
2023-01-17T06:45:43.802Z,34.43
2023-01-17T06:48:11.227Z,65.87
2023-01-17T06:50:38.426Z,43.70
2023-01-17T06:53:06.882Z,37.93
2023-01-17T06:55:35.143Z,44.93
2023-01-17T06:58:03.269Z,31.63
2023-01-17T07:00:31.428Z,142.67
2023-01-17T07:02:58.846Z,44.63
2023-01-17T07:05:26.097Z,42.63
2023-01-17T07:07:53.661Z,35.30
2023-01-17T07:10:21.150Z,28.73
2023-01-17T07:12:48.513Z,29.53
2023-01-17T07:15:15.628Z,32.30
2023-01-17T07:17:42.870Z,35.30
2023-01-17T07:20:10.538Z,25.27
2023-01-17T07:22:37.997Z,58.47
2023-01-17T07:25:05.683Z,53.40
2023-01-17T07:27:33.642Z,37.60
2023-01-17T07:30:00.735Z,44.13
2023-01-17T07:32:28.583Z,37.23
2023-01-17T07:34:57.642Z,36.83
2023-01-17T07:37:26.514Z,41.37
2023-01-17T07:39:54.618Z,37.50
2023-01-17T07:42:24.055Z,43.97
2023-01-17T07:44:51.331Z,31.07
2023-01-17T07:47:18.650Z,67.73
2023-01-17T07:49:45.699Z,46.77
2023-01-17T07:52:13.038Z,36.27
2023-01-17T07:54:40.132Z,51.87
2023-01-17T07:57:11.801Z,29.87
2023-01-17T07:59:38.838Z,35.33
2023-01-17T08:02:06.254Z,49.87
2023-01-17T08:04:35.308Z,49.70
2023-01-17T08:07:02.664Z,34.90
2023-01-17T08:09:29.738Z,31.27
2023-01-17T08:11:57.066Z,30.87
2023-01-17T08:14:24.021Z,27.60
2023-01-17T08:16:51.338Z,72.13
2023-01-17T08:19:18.344Z,34.07
2023-01-17T08:21:45.677Z,38.60
2023-01-17T08:24:15.528Z,40.77
2023-01-17T08:26:42.914Z,35.63
2023-01-17T08:29:09.925Z,35.83
2023-01-17T08:31:37.248Z,41.13
2023-01-17T08:34:04.534Z,39.83
2023-01-17T08:36:31.904Z,27.77
2023-01-17T08:38:59.096Z,25.50
2023-01-17T08:41:29.476Z,45.77
2023-01-17T08:43:56.457Z,35.70
2023-01-17T08:46:24.545Z,29.07
2023-01-17T08:48:56.574Z,30.73
2023-01-17T08:51:26.415Z,33.70
2023-01-17T08:53:53.904Z,37.07
2023-01-17T08:56:21.208Z,23.33
2023-01-17T08:58:48.187Z,29.03
2023-01-17T09:01:16.005Z,27.13
2023-01-17T09:03:43.368Z,32.60
2023-01-17T09:06:12.948Z,24.83
2023-01-17T09:08:40.589Z,27.40
2023-01-17T09:11:10.418Z,24.30
2023-01-17T09:13:38.366Z,21.80
2023-01-17T09:16:06.453Z,31.80
2023-01-17T09:18:34.355Z,24.37
2023-01-17T09:21:13.366Z,34.93
2023-01-17T09:23:40.910Z,34.37
2023-01-17T09:26:17.431Z,23.40
2023-01-17T09:28:44.406Z,27.20
2023-01-17T09:31:11.912Z,31.40
2023-01-17T09:33:41.680Z,36.37
2023-01-17T09:36:10.047Z,27.60
2023-01-17T09:38:37.512Z,33.37
2023-01-17T09:41:20.629Z,29.03
2023-01-17T09:44:27.187Z,20.27
2023-01-17T09:46:58.507Z,43.47
2023-01-17T09:49:35.930Z,44.60
2023-01-17T09:52:03.801Z,55.13
2023-01-17T09:54:43.554Z,71.77
2023-01-17T09:57:32.586Z,26.13
2023-01-17T10:00:09.120Z,22.57
2023-01-17T10:03:17.927Z,39.43
2023-01-17T10:05:57.192Z,29.03
2023-01-17T10:08:51.946Z,25.30
2023-01-17T10:11:56.570Z,29.13
2023-01-17T10:14:49.128Z,25.73
2023-01-17T10:17:28.940Z,30.47
2023-01-17T10:20:17.140Z,25.53
2023-01-17T10:23:10.480Z,42.07
2023-01-17T10:25:43.400Z,43.97
2023-01-17T10:28:15.334Z,23.93
2023-01-17T10:30:58.505Z,22.10
2023-01-17T10:33:29.039Z,32.40
2023-01-17T10:35:59.180Z,27.63
2023-01-17T10:38:35.037Z,25.20
2023-01-17T10:41:36.247Z,26.57
2023-01-17T10:44:29.612Z,27.87
2023-01-17T10:47:05.265Z,18.40
2023-01-17T10:49:32.511Z,38.03
2023-01-17T10:52:17.965Z,32.77
2023-01-17T10:54:44.896Z,50.40
2023-01-17T10:57:20.926Z,58.40
2023-01-17T10:59:48.112Z,22.33
2023-01-17T11:02:30.960Z,29.77
2023-01-17T11:05:03.532Z,30.73
2023-01-17T11:07:30.938Z,29.10
2023-01-17T11:09:58.750Z,28.97
2023-01-17T11:12:45.445Z,25.70
2023-01-17T11:15:12.420Z,29.40
2023-01-17T11:17:52.948Z,28.30
2023-01-17T11:20:38.811Z,21.57
2023-01-17T11:23:13.336Z,33.63
2023-01-17T11:25:41.559Z,42.17
2023-01-17T11:28:22.627Z,78.37
2023-01-17T11:31:00.932Z,39.70
2023-01-17T11:34:07.719Z,30.90
2023-01-17T11:36:34.849Z,25.50
2023-01-17T11:39:05.451Z,25.80
2023-01-17T11:41:41.986Z,18.03
2023-01-17T11:44:24.284Z,15.73
2023-01-17T11:47:14.341Z,16.70
2023-01-17T11:49:43.604Z,12.83
2023-01-17T11:52:31.943Z,27.67
2023-01-17T11:54:59.346Z,9.90
2023-01-17T11:57:29.091Z,20.77
2023-01-17T12:00:19.556Z,16.33
2023-01-17T12:02:55.709Z,8.33
2023-01-17T12:05:31.862Z,11.57
2023-01-17T12:08:30.646Z,14.60
2023-01-17T12:11:10.303Z,10.57
2023-01-17T12:14:14.654Z,17.07
2023-01-17T12:17:14.026Z,9.23
2023-01-17T12:20:01.182Z,15.00
2023-01-17T12:22:59.874Z,26.93
2023-01-17T12:25:39.650Z,11.97
2023-01-17T12:28:34.056Z,12.93
2023-01-17T12:31:22.680Z,17.37
2023-01-17T12:33:58.955Z,12.60
2023-01-17T12:36:38.106Z,13.17
2023-01-17T12:39:11.990Z,12.30
2023-01-17T12:41:49.037Z,18.87
2023-01-17T12:44:18.674Z,16.80
2023-01-17T12:47:00.974Z,16.10
2023-01-17T12:49:38.192Z,12.10
2023-01-17T12:52:41.044Z,6.67
2023-01-17T12:55:18.266Z,21.23
2023-01-17T12:57:50.009Z,13.17
2023-01-17T13:00:19.939Z,29.53
2023-01-17T13:03:02.059Z,25.27
2023-01-17T13:05:41.824Z,11.50
2023-01-17T13:08:24.233Z,16.23
2023-01-17T13:10:56.490Z,23.80
2023-01-17T13:13:30.514Z,7.43
2023-01-17T13:16:01.250Z,10.37
2023-01-17T13:18:29.923Z,11.10
2023-01-17T13:21:12.302Z,5.70
2023-01-17T13:23:59.170Z,7.80
2023-01-17T13:26:34.099Z,13.50
2023-01-17T13:29:19.740Z,14.83
2023-01-17T13:31:51.716Z,15.40
2023-01-17T13:34:33.546Z,28.00
2023-01-17T13:37:09.518Z,35.37
2023-01-17T13:40:04.196Z,10.73
2023-01-17T13:43:13.764Z,19.87
2023-01-17T13:45:41.057Z,48.53
2023-01-17T13:48:18.170Z,14.97
2023-01-17T13:50:45.104Z,13.80
2023-01-17T13:53:27.309Z,20.47
2023-01-17T13:56:03.118Z,25.10
2023-01-17T13:58:50.623Z,12.63
2023-01-17T14:01:24.082Z,13.47
2023-01-17T14:03:54.088Z,24.33
2023-01-17T14:06:33.033Z,75.17
2023-01-17T14:09:01.792Z,44.30
2023-01-17T14:11:32.685Z,8.70
2023-01-17T14:14:38.112Z,29.03
2023-01-17T14:17:23.234Z,31.37
2023-01-17T14:19:51.976Z,25.60
2023-01-17T14:22:22.202Z,12.27
2023-01-17T14:25:15.146Z,15.20
2023-01-17T14:27:42.134Z,8.63
2023-01-17T14:30:15.725Z,99.63
2023-01-17T14:32:43.272Z,18.47
2023-01-17T14:35:21.933Z,50.13
2023-01-17T14:37:53.100Z,54.90
2023-01-17T14:40:26.040Z,54.03
2023-01-17T14:43:11.350Z,13.80
2023-01-17T14:45:39.002Z,25.00
2023-01-17T14:48:10.832Z,26.53
2023-01-17T14:50:42.929Z,22.73
2023-01-17T14:53:28.250Z,13.90
2023-01-17T14:56:12.235Z,21.93
2023-01-17T14:58:42.370Z,15.87
2023-01-17T15:01:13.683Z,9.67
2023-01-17T15:03:44.738Z,52.80
2023-01-17T15:06:17.292Z,48.53
2023-01-17T15:08:44.604Z,61.43
2023-01-17T15:11:18.522Z,58.20
2023-01-17T15:13:49.478Z,96.80
2023-01-17T15:16:27.566Z,16.53
2023-01-17T15:18:55.852Z,16.90
2023-01-17T15:21:36.882Z,13.53
2023-01-17T15:24:07.281Z,13.40
2023-01-17T15:26:36.457Z,49.73
2023-01-17T15:29:06.227Z,23.20
2023-01-17T15:31:51.089Z,27.07
2023-01-17T15:34:28.276Z,20.47
2023-01-17T15:36:58.117Z,12.37
2023-01-17T15:39:30.358Z,153.90
2023-01-17T15:41:59.634Z,88.47
2023-01-17T15:44:47.586Z,60.83
2023-01-17T15:47:39.352Z,24.73
2023-01-17T15:50:26.405Z,83.47
2023-01-17T15:52:56.860Z,81.23
2023-01-17T15:55:29.470Z,79.93
2023-01-17T15:57:56.903Z,59.90
2023-01-17T16:00:45.243Z,24.13
2023-01-17T16:03:23.397Z,18.40
2023-01-17T16:05:51.518Z,29.20
2023-01-17T16:08:26.425Z,149.77
2023-01-17T16:11:02.291Z,110.03
2023-01-17T16:13:31.582Z,91.77
2023-01-17T16:16:20.311Z,41.37
2023-01-17T16:18:48.672Z,43.07
2023-01-17T16:21:19.451Z,23.83
2023-01-17T16:23:47.172Z,43.10
2023-01-17T16:26:14.313Z,35.13
2023-01-17T16:28:41.782Z,25.60
2023-01-17T16:31:08.956Z,19.53
2023-01-17T16:33:36.292Z,17.87
2023-01-17T16:36:03.583Z,21.30
2023-01-17T16:38:32.215Z,21.47
2023-01-17T16:40:59.316Z,23.80
2023-01-17T16:43:26.741Z,34.43
2023-01-17T16:45:55.599Z,46.40
2023-01-17T16:48:22.977Z,40.80
2023-01-17T16:50:52.336Z,32.53
2023-01-17T16:53:28.205Z,45.00
2023-01-17T16:55:58.222Z,29.70
2023-01-17T16:58:25.657Z,83.90
2023-01-17T17:00:55.284Z,42.23
2023-01-17T17:03:23.096Z,29.97
2023-01-17T17:05:58.094Z,26.03
2023-01-17T17:08:25.519Z,33.63
2023-01-17T17:10:52.484Z,32.47
2023-01-17T17:13:20.250Z,46.43
2023-01-17T17:15:47.518Z,83.70
2023-01-17T17:18:16.550Z,105.27
2023-01-17T17:20:44.377Z,39.67
2023-01-17T17:23:11.814Z,104.10
2023-01-17T17:25:39.150Z,93.57
2023-01-17T17:28:06.727Z,55.93
2023-01-17T17:30:34.557Z,177.20
2023-01-17T17:33:04.732Z,71.27
2023-01-17T17:35:34.415Z,463.00
2023-01-17T17:38:01.717Z,160.27
2023-01-17T17:40:28.697Z,233.07
2023-01-17T17:42:55.960Z,387.23
2023-01-17T17:45:23.054Z,165.77
2023-01-17T17:47:50.446Z,967.20
2023-01-17T17:50:17.530Z,1588.13
2023-01-17T17:52:44.874Z,1361.03
2023-01-17T17:55:13.160Z,429.60
2023-01-17T17:57:40.401Z,360.97
2023-01-17T18:00:08.226Z,1613.27
2023-01-17T18:02:35.605Z,1999.90
2023-01-17T18:05:02.820Z,1999.90
2023-01-17T18:07:33.402Z,1999.90
2023-01-17T18:10:00.371Z,582.47
2023-01-17T18:12:27.595Z,539.83
2023-01-17T18:14:54.631Z,657.43
2023-01-17T18:17:22.010Z,334.17
2023-01-17T18:19:48.949Z,320.10
2023-01-17T18:22:16.177Z,172.60
2023-01-17T18:24:43.152Z,114.50
2023-01-17T18:27:10.608Z,50.90
2023-01-17T18:29:37.871Z,55.43
2023-01-17T18:32:05.377Z,59.10
2023-01-17T18:34:34.567Z,47.63
2023-01-17T18:37:01.878Z,37.40
2023-01-17T18:39:29.892Z,30.83
2023-01-17T18:41:57.847Z,28.83
2023-01-17T18:44:25.159Z,41.03
2023-01-17T18:46:53.775Z,50.33
2023-01-17T18:49:20.968Z,38.60
2023-01-17T18:51:50.987Z,52.40
2023-01-17T18:54:19.496Z,69.33
2023-01-17T18:56:47.263Z,88.73
2023-01-17T18:59:16.070Z,882.30
2023-01-17T19:01:43.839Z,831.33
2023-01-17T19:04:12.290Z,201.30
2023-01-17T19:06:42.504Z,145.67
2023-01-17T19:09:11.500Z,122.40
2023-01-17T19:11:39.306Z,368.47
2023-01-17T19:14:07.158Z,117.57
2023-01-17T19:16:39.151Z,190.27
2023-01-17T19:19:14.815Z,177.83
2023-01-17T19:21:42.314Z,65.90
2023-01-17T19:24:10.762Z,58.03
2023-01-17T19:26:38.135Z,97.30
2023-01-17T19:29:06.770Z,156.33
2023-01-17T19:31:39.137Z,296.23
2023-01-17T19:34:06.268Z,143.47
2023-01-17T19:36:35.574Z,116.80
2023-01-17T19:39:06.122Z,176.93
2023-01-17T19:41:36.593Z,1025.73
2023-01-17T19:44:06.925Z,413.83
2023-01-17T19:46:35.062Z,202.67
2023-01-17T19:49:02.836Z,103.90
2023-01-17T19:51:30.246Z,65.10
2023-01-17T19:53:59.887Z,128.17
2023-01-17T19:56:28.013Z,115.77
2023-01-17T19:58:57.195Z,57.77
2023-01-17T20:01:28.389Z,66.43
2023-01-17T20:03:57.817Z,99.43
2023-01-17T20:06:28.991Z,302.73
2023-01-17T20:08:56.575Z,101.63
2023-01-17T20:11:25.030Z,73.20
2023-01-17T20:13:54.689Z,74.77
2023-01-17T20:16:23.627Z,81.60
2023-01-17T20:18:51.020Z,68.63
2023-01-17T20:21:20.560Z,40.07
2023-01-17T20:23:48.519Z,35.57
2023-01-17T20:26:18.651Z,35.17
2023-01-17T20:28:48.182Z,33.60
2023-01-17T20:31:17.920Z,40.27
2023-01-17T20:33:46.997Z,33.40
2023-01-17T20:36:16.060Z,33.30
2023-01-17T20:38:44.046Z,41.00
2023-01-17T20:41:16.732Z,47.03
2023-01-17T20:43:45.567Z,125.90
2023-01-17T20:46:13.574Z,60.53
2023-01-17T20:48:45.539Z,101.40
2023-01-17T20:51:13.745Z,55.80
2023-01-17T20:53:42.500Z,40.60
2023-01-17T20:56:14.221Z,58.60
2023-01-17T20:58:42.091Z,69.10
2023-01-17T21:01:11.606Z,64.20
2023-01-17T21:03:39.821Z,56.73
2023-01-17T21:06:11.585Z,60.03
2023-01-17T21:08:40.354Z,40.37
2023-01-17T21:11:10.431Z,52.27
2023-01-17T21:13:37.448Z,57.23
2023-01-17T21:16:05.159Z,75.80
2023-01-17T21:18:32.518Z,53.37
2023-01-17T21:21:05.753Z,66.80
2023-01-17T21:23:34.718Z,85.20
2023-01-17T21:26:02.038Z,87.17
2023-01-17T21:28:32.605Z,126.07
2023-01-17T21:31:00.026Z,90.83
2023-01-17T21:33:29.587Z,92.60
2023-01-17T21:36:07.788Z,84.90
2023-01-17T21:38:34.819Z,99.43
2023-01-17T21:41:02.857Z,86.43
2023-01-17T21:43:29.799Z,76.60
2023-01-17T21:45:57.144Z,108.00
2023-01-17T21:48:24.090Z,59.83
2023-01-17T21:50:52.617Z,90.60
2023-01-17T21:53:19.708Z,60.87
2023-01-17T21:56:05.492Z,66.27
2023-01-17T21:58:44.733Z,49.60
2023-01-17T22:01:19.280Z,48.23
2023-01-17T22:03:56.325Z,40.90
2023-01-17T22:06:26.715Z,39.27
2023-01-17T22:08:53.897Z,51.43
2023-01-17T22:11:23.361Z,52.90
2023-01-17T22:13:50.676Z,47.53
2023-01-17T22:16:20.169Z,54.47
2023-01-17T22:18:47.444Z,85.80
2023-01-17T22:21:17.234Z,69.90
2023-01-17T22:23:48.804Z,67.30
2023-01-17T22:26:16.728Z,37.47
2023-01-17T22:28:44.455Z,59.17
2023-01-17T22:31:25.545Z,49.17
2023-01-17T22:33:57.596Z,40.43
2023-01-17T22:36:25.328Z,33.87
2023-01-17T22:38:52.491Z,38.00
2023-01-17T22:41:22.973Z,37.20
2023-01-17T22:43:52.227Z,37.33
2023-01-17T22:46:27.580Z,38.60
2023-01-17T22:48:55.577Z,39.10
2023-01-17T22:51:24.171Z,37.03
2023-01-17T22:53:53.259Z,35.23
2023-01-17T22:56:22.410Z,38.07
2023-01-17T22:58:49.963Z,39.17
2023-01-17T23:01:22.659Z,38.57
2023-01-17T23:03:54.691Z,38.77
2023-01-17T23:06:30.341Z,38.07
2023-01-17T23:09:00.581Z,39.83
2023-01-17T23:11:39.134Z,41.67
2023-01-17T23:14:12.240Z,38.70
2023-01-17T23:17:06.484Z,35.03
2023-01-17T23:19:38.398Z,35.23
2023-01-17T23:22:20.789Z,30.13
2023-01-17T23:25:04.298Z,32.33
2023-01-17T23:27:58.273Z,32.77
2023-01-17T23:30:35.453Z,30.80
2023-01-17T23:33:07.927Z,31.93
2023-01-17T23:35:41.477Z,31.07
2023-01-17T23:38:28.738Z,31.63
2023-01-17T23:41:26.989Z,29.17
2023-01-17T23:43:58.704Z,39.90
2023-01-17T23:46:26.621Z,42.10
2023-01-17T23:48:55.158Z,35.93
2023-01-17T23:51:22.634Z,35.17
2023-01-17T23:53:53.411Z,37.90
2023-01-17T23:56:23.095Z,53.60
2023-01-17T23:58:50.420Z,58.00
